Wilmot, New Hampshire
Current Conditions -  °F | °C
As of 11:53 AM on Tuesday 21 Oct 2014 (Local Time) from KLEB Reporting Station
Light Rain Light Rain  
Wind Chill: 49°   Ceiling: 1800
Heat Index: 49°   Visibility: 4mi
Dew Point: 45°   Wind: 3mph
Humidity: 86%   Direction: 340°NNW
Pressure: 29.99"   Gusts: NA
Location:  43.45°N, 71.91°W
Report Text: KLEB 211553Z 34003KT 4SM -RA BR OVC018 09/07 A2999 RMK AO2 SLP157 P0004 T00940072
Loading
Personal Weather Stations






























Interactive Weather Map
Tropical Storm Tracking
New forecast layout! Learn more

10-Day Weather Forecast

Advertisements
Track Severe Weather on mobile